Time;durP1;ratioP1;P1;durP2;ratioP2;P2;SDS_P1;SDS_P2;PMS_P1;PMS_P2;Temp;Humidity;BMP_temperature;BMP_pressure;BME280_temperature;BME280_humidity;BME280_pressure;Samples;Min_cycle;Max_cycle;Signal;HPM_P1;HPM_P2
2023/05/19 00:01:13;;;;;;;15.27;9.88;;;;;;;7.98;67.69;102578.31;6110560;23;20104;-78
2023/05/19 00:03:56;;;;;;;15.50;9.63;;;;;;;8.04;67.78;102573.25;6134365;23;20349;-78
2023/05/19 00:06:32;;;;;;;16.60;10.35;;;;;;;7.94;68.18;102576.44;6158231;23;20005;-78
2023/05/19 00:09:06;;;;;;;13.07;8.80;;;;;;;7.93;68.00;102582.50;6135090;23;20095;-78
2023/05/19 00:11:35;;;;;;;12.43;9.48;;;;;;;7.86;69.43;102576.25;6158427;23;20012;-79
2023/05/19 00:14:01;;;;;;;14.10;10.00;;;;;;;7.86;68.90;102572.75;6135383;23;20009;-78
2023/05/19 00:16:29;;;;;;;14.27;9.98;;;;;;;7.84;69.30;102572.69;6110022;23;20075;-78
2023/05/19 00:18:59;;;;;;;15.15;10.73;;;;;;;7.78;69.97;102572.53;6135203;23;20055;-78
2023/05/19 00:21:26;;;;;;;15.57;10.52;;;;;;;7.77;70.39;102570.75;6133945;23;20012;-78
2023/05/19 00:23:51;;;;;;;15.65;10.57;;;;;;;7.76;69.90;102559.47;6159414;23;20048;-78
2023/05/19 00:26:17;;;;;;;14.68;10.05;;;;;;;7.75;70.44;102562.91;6158224;23;20016;-78
2023/05/19 00:28:42;;;;;;;19.02;10.07;;;;;;;7.74;70.68;102560.25;6159659;23;20131;-78
2023/05/19 00:31:08;;;;;;;12.75;10.07;;;;;;;7.74;70.96;102563.75;6134745;23;20020;-79
2023/05/19 00:33:33;;;;;;;13.63;9.65;;;;;;;7.74;70.68;102555.03;6159528;23;20021;-78
2023/05/19 00:36:02;;;;;;;15.63;9.70;;;;;;;7.71;71.61;102557.56;6109156;23;20036;-78
2023/05/19 00:38:30;;;;;;;16.67;10.93;;;;;;;7.70;72.02;102558.38;6158376;23;20005;-79
2023/05/19 00:40:55;;;;;;;14.52;9.65;;;;;;;7.66;71.59;102551.31;6131908;23;20017;-79
2023/05/19 00:43:21;;;;;;;13.35;9.98;;;;;;;7.68;71.32;102554.88;6109104;23;20431;-78
2023/05/19 00:45:47;;;;;;;12.52;9.02;;;;;;;7.68;71.25;102549.66;6108969;23;20013;-78
2023/05/19 00:48:12;;;;;;;14.07;9.18;;;;;;;7.65;71.95;102542.63;6135007;23;20008;-79
2023/05/19 00:50:38;;;;;;;13.80;9.98;;;;;;;7.63;72.28;102544.31;6133822;23;20070;-78
2023/05/19 00:53:04;;;;;;;14.88;9.55;;;;;;;7.63;72.36;102542.56;6108549;23;20317;-79
2023/05/19 00:55:30;;;;;;;14.73;9.65;;;;;;;7.62;73.03;102546.00;6108699;23;20020;-78
2023/05/19 00:57:56;;;;;;;14.93;9.38;;;;;;;7.63;72.55;102539.09;6108630;23;20017;-78
2023/05/19 01:00:22;;;;;;;15.57;9.57;;;;;;;7.63;72.74;102546.91;6132790;23;20009;-78
2023/05/19 01:02:49;;;;;;;18.75;10.05;;;;;;;7.61;73.79;102543.38;6133286;23;20092;-78
2023/05/19 01:05:15;;;;;;;15.77;9.93;;;;;;;7.60;73.45;102541.59;6133256;23;20019;-79
2023/05/19 01:07:41;;;;;;;18.45;10.07;;;;;;;7.60;73.79;102547.72;6109592;23;20117;-79
2023/05/19 01:10:07;;;;;;;14.27;9.23;;;;;;;7.59;74.21;102545.06;6183936;23;20206;-78
2023/05/19 01:12:33;;;;;;;14.23;9.02;;;;;;;7.54;73.92;102541.44;6134676;23;20147;-79
2023/05/19 01:15:00;;;;;;;12.80;9.27;;;;;;;7.53;74.13;102543.16;6134176;23;20493;-79
2023/05/19 01:17:34;;;;;;;13.07;8.85;;;;;;;7.50;75.03;102543.09;6110075;23;20074;-78
2023/05/19 01:20:13;;;;;;;13.80;8.82;;;;;;;7.45;75.64;102537.72;6158065;23;20428;-78
2023/05/19 01:22:53;;;;;;;12.82;8.60;;;;;;;7.47;75.16;102535.19;6158487;23;20001;-78
2023/05/19 01:25:56;;;;;;;13.98;8.50;;;;;;;7.47;75.23;102545.59;6157905;23;20005;-78
2023/05/19 01:28:46;;;;;;;13.70;9.00;;;;;;;7.40;75.74;102544.53;6158783;23;20012;-78
2023/05/19 01:31:14;;;;;;;15.15;8.85;;;;;;;7.39;75.25;102536.69;6158323;23;20009;-78
2023/05/19 01:33:42;;;;;;;15.52;9.23;;;;;;;7.37;76.15;102544.47;6159234;23;20012;-78
2023/05/19 01:36:09;;;;;;;15.40;9.32;;;;;;;7.33;76.35;102546.94;6157989;23;20087;-78
2023/05/19 01:38:37;;;;;;;16.38;8.60;;;;;;;7.31;76.49;102544.25;6134684;23;20016;-78
2023/05/19 01:41:05;;;;;;;12.50;7.97;;;;;;;7.29;76.56;102546.81;6132358;23;20012;-78
2023/05/19 01:43:31;;;;;;;12.43;8.13;;;;;;;7.20;77.74;102545.69;6158368;23;20012;-78
2023/05/19 01:46:01;;;;;;;19.73;8.82;;;;;;;7.18;77.20;102550.84;6133226;23;20020;-78
2023/05/19 01:48:32;;;;;;;13.45;8.38;;;;;;;7.11;77.82;102546.28;6157505;23;20020;-78
2023/05/19 01:50:58;;;;;;;16.20;9.43;;;;;;;7.15;77.40;102545.53;6132909;23;20407;-80
2023/05/19 01:53:24;;;;;;;13.57;8.93;;;;;;;7.06;77.26;102540.94;6109350;23;20009;-79
2023/05/19 01:55:52;;;;;;;15.48;8.45;;;;;;;7.03;77.15;102533.03;6155683;23;20020;-80
2023/05/19 01:58:41;;;;;;;16.98;8.82;;;;;;;7.03;77.67;102540.84;6156718;23;20017;-79
2023/05/19 02:01:36;;;;;;;17.88;9.38;;;;;;;7.04;78.45;102529.59;6155636;23;20352;-80
2023/05/19 02:04:28;;;;;;;15.25;8.90;;;;;;;7.02;78.44;102532.97;6156608;23;20009;-79
2023/05/19 02:07:09;;;;;;;19.85;8.98;;;;;;;7.00;78.66;102529.47;6157176;23;20015;-79
2023/05/19 02:09:41;;;;;;;14.10;9.15;;;;;;;6.90;79.22;102531.75;6156597;23;20051;-79
2023/05/19 02:12:27;;;;;;;13.48;9.25;;;;;;;6.92;78.50;102519.69;6156593;23;20099;-79
2023/05/19 02:15:15;;;;;;;16.73;9.50;;;;;;;6.94;78.66;102525.81;6155114;23;20016;-79
2023/05/19 02:17:47;;;;;;;12.95;9.13;;;;;;;6.86;79.05;102523.81;6158001;23;20306;-77
2023/05/19 02:20:14;;;;;;;12.32;8.38;;;;;;;6.79;79.54;102527.06;6157547;23;20088;-78
2023/05/19 02:22:40;;;;;;;16.45;8.98;;;;;;;6.79;80.07;102520.13;6157106;23;20352;-80
2023/05/19 02:25:06;;;;;;;11.93;8.82;;;;;;;6.74;80.88;102525.19;6155931;23;20587;-80
2023/05/19 02:27:33;;;;;;;14.13;9.07;;;;;;;6.76;80.70;102522.63;6155813;23;20304;-78
2023/05/19 02:29:59;;;;;;;16.27;9.43;;;;;;;6.74;81.49;102522.59;6155735;23;20005;-79
2023/05/19 02:32:24;;;;;;;12.30;8.93;;;;;;;6.74;81.19;102522.59;6106932;23;20012;-80
2023/05/19 02:34:50;;;;;;;13.35;8.65;;;;;;;6.73;80.88;102517.34;6130259;23;20005;-79
2023/05/19 02:37:16;;;;;;;14.95;9.40;;;;;;;6.68;81.20;102516.31;6157713;23;20009;-80
2023/05/19 02:39:42;;;;;;;17.58;9.20;;;;;;;6.65;81.48;102513.59;6131575;23;20013;-80
2023/05/19 02:42:08;;;;;;;14.43;9.60;;;;;;;6.64;81.93;102511.81;6155574;23;20451;-80
2023/05/19 02:44:33;;;;;;;20.38;9.75;;;;;;;6.65;81.40;102511.00;6157160;23;20009;-80
2023/05/19 02:46:59;;;;;;;16.10;9.73;;;;;;;6.62;81.91;102506.56;6132189;23;20005;-80
2023/05/19 02:49:25;;;;;;;14.13;9.52;;;;;;;6.63;81.68;102504.88;6132924;23;20016;-79
2023/05/19 02:51:50;;;;;;;17.30;8.95;;;;;;;6.57;82.38;102508.16;6132275;23;20008;-80
2023/05/19 02:54:16;;;;;;;14.07;9.18;;;;;;;6.57;82.42;102509.03;6131533;23;20017;-80
2023/05/19 02:56:41;;;;;;;16.27;9.23;;;;;;;6.57;82.57;102505.56;6156776;23;20102;-79
2023/05/19 02:59:07;;;;;;;13.10;9.73;;;;;;;6.56;82.79;102503.78;6109145;23;20017;-79
2023/05/19 03:01:32;;;;;;;16.02;10.02;;;;;;;6.54;83.30;102497.66;6131066;23;20013;-79
2023/05/19 03:03:58;;;;;;;17.20;9.88;;;;;;;6.53;83.02;102504.56;6107993;23;20316;-80
2023/05/19 03:06:23;;;;;;;16.58;9.48;;;;;;;6.52;83.37;102499.31;6156703;23;20005;-79
2023/05/19 03:08:49;;;;;;;14.70;9.60;;;;;;;6.49;83.21;102502.69;6107810;23;20091;-79
2023/05/19 03:11:15;;;;;;;16.67;10.50;;;;;;;6.49;83.23;102500.09;6131321;23;20016;-79
2023/05/19 03:13:40;;;;;;;20.20;10.02;;;;;;;6.46;83.05;102512.16;6131990;23;20016;-80
2023/05/19 03:16:06;;;;;;;15.30;9.55;;;;;;;6.43;83.29;102505.13;6132307;23;20097;-79
2023/05/19 03:18:33;;;;;;;15.82;10.32;;;;;;;6.43;83.37;102507.72;6108111;23;20009;-80
2023/05/19 03:20:58;;;;;;;15.18;10.63;;;;;;;6.34;83.90;102505.69;6155962;23;20727;-78
2023/05/19 03:23:25;;;;;;;14.00;10.02;;;;;;;6.38;84.16;102510.19;6108699;23;20005;-78
2023/05/19 03:25:52;;;;;;;16.70;10.75;;;;;;;6.38;85.01;102511.91;6131473;23;20015;-79
2023/05/19 03:28:18;;;;;;;17.27;10.38;;;;;;;6.34;85.24;102505.69;6157330;23;20013;-80
2023/05/19 03:30:44;;;;;;;17.48;10.35;;;;;;;6.36;84.85;102504.03;6156380;23;20379;-79
2023/05/19 03:33:10;;;;;;;16.30;9.90;;;;;;;6.31;85.08;102509.94;6106650;23;20015;-80
2023/05/19 03:35:35;;;;;;;16.30;11.07;;;;;;;6.28;85.08;102512.41;6132112;23;20009;-81
2023/05/19 03:38:00;;;;;;;15.25;10.73;;;;;;;6.29;85.37;102509.00;6107649;23;20009;-81
2023/05/19 03:40:26;;;;;;;16.67;10.80;;;;;;;6.28;85.06;102520.22;6131066;23;20078;-80
2023/05/19 03:42:53;;;;;;;22.33;10.93;;;;;;;6.25;85.44;102521.03;6107450;23;20005;-80
2023/05/19 03:45:18;;;;;;;15.40;10.85;;;;;;;6.21;85.09;102519.16;6131788;23;20096;-80
2023/05/19 03:47:45;;;;;;;17.10;10.07;;;;;;;6.24;85.30;102522.72;6156377;23;20040;-80
2023/05/19 03:50:10;;;;;;;14.73;10.90;;;;;;;6.20;85.71;102526.06;6131217;23;20084;-80
2023/05/19 03:52:37;;;;;;;16.33;10.38;;;;;;;6.24;85.30;102533.16;6156195;23;20232;-79
2023/05/19 03:55:03;;;;;;;15.63;10.32;;;;;;;6.25;85.87;102528.84;6107068;23;20017;-80
2023/05/19 03:57:29;;;;;;;19.77;12.00;;;;;;;6.26;86.18;102532.31;6108079;23;20420;-79
2023/05/19 03:59:54;;;;;;;17.20;10.70;;;;;;;6.23;85.90;102528.81;6108003;23;20016;-80
2023/05/19 04:02:20;;;;;;;18.63;11.13;;;;;;;6.27;86.04;102531.50;6107982;23;20005;-79
2023/05/19 04:04:45;;;;;;;15.65;11.85;;;;;;;6.30;86.18;102534.19;6131562;23;20455;-80
2023/05/19 04:07:11;;;;;;;16.27;10.57;;;;;;;6.35;86.03;102533.53;6130896;23;20009;-77
2023/05/19 04:09:37;;;;;;;16.33;10.88;;;;;;;6.36;86.42;102529.19;6131663;23;20016;-77
2023/05/19 04:12:02;;;;;;;17.98;11.45;;;;;;;6.45;86.02;102526.00;6107282;23;20055;-78
2023/05/19 04:14:28;;;;;;;19.67;10.88;;;;;;;6.51;85.87;102527.09;6133475;23;20033;-77
2023/05/19 04:16:53;;;;;;;16.52;11.27;;;;;;;6.62;86.39;102523.94;6184643;23;20009;-78
2023/05/19 04:19:19;;;;;;;17.70;11.50;;;;;;;6.65;86.83;102537.06;6134176;23;20040;-78
2023/05/19 04:21:44;;;;;;;17.30;11.27;;;;;;;6.71;86.28;102521.59;6132205;23;20048;-77
2023/05/19 04:24:10;;;;;;;18.00;10.70;;;;;;;6.72;86.33;102528.59;6158284;23;20005;-77
2023/05/19 04:26:37;;;;;;;20.65;10.60;;;;;;;6.79;86.02;102530.53;6108168;23;20012;-77
2023/05/19 04:29:03;;;;;;;15.13;10.55;;;;;;;6.81;85.83;102526.28;6110798;23;20013;-78
2023/05/19 04:31:29;;;;;;;17.73;10.98;;;;;;;6.87;86.23;102528.19;6133413;23;20012;-78
2023/05/19 04:33:54;;;;;;;21.92;11.45;;;;;;;6.87;85.65;102525.59;6131921;23;20430;-78
2023/05/19 04:36:20;;;;;;;19.23;11.32;;;;;;;6.93;85.90;102523.16;6133392;23;20035;-78
2023/05/19 04:38:46;;;;;;;14.38;11.02;;;;;;;7.06;86.33;102525.28;6132597;23;20435;-77
2023/05/19 04:41:12;;;;;;;18.85;11.90;;;;;;;7.08;86.29;102527.94;6132546;23;20091;-77
2023/05/19 04:43:40;;;;;;;18.48;11.15;;;;;;;7.11;85.88;102530.63;6110327;23;20032;-77
2023/05/19 04:46:10;;;;;;;18.88;10.50;;;;;;;7.07;85.63;102528.81;6158603;23;20076;-76
2023/05/19 04:48:36;;;;;;;15.90;10.32;;;;;;;7.14;84.79;102529.84;6133909;23;20440;-76
2023/05/19 04:51:01;;;;;;;15.70;10.93;;;;;;;7.16;85.90;102529.06;6132337;23;20083;-79
2023/05/19 04:53:28;;;;;;;20.85;11.82;;;;;;;7.40;85.91;102531.50;6108123;23;20017;-79
2023/05/19 04:55:53;;;;;;;30.05;11.73;;;;;;;7.46;84.95;102529.06;6154764;23;20128;-79
2023/05/19 04:58:19;;;;;;;17.83;11.43;;;;;;;7.53;84.17;102532.72;6157060;23;20024;-78
2023/05/19 05:00:44;;;;;;;15.70;10.77;;;;;;;7.58;83.57;102530.25;6154745;23;20040;-79
2023/05/19 05:03:11;;;;;;;16.67;10.73;;;;;;;7.60;84.25;102525.94;6109137;23;20147;-80
2023/05/19 05:05:36;;;;;;;16.35;11.35;;;;;;;7.57;83.77;102537.19;6109852;23;20312;-78
2023/05/19 05:08:02;;;;;;;17.33;10.63;;;;;;;7.60;83.63;102529.44;6133857;23;20013;-81
2023/05/19 05:10:28;;;;;;;16.45;11.38;;;;;;;7.76;83.43;102522.06;6132652;23;20013;-80
2023/05/19 05:12:53;;;;;;;15.15;10.02;;;;;;;7.85;84.46;102519.66;6107522;23;20042;-77
2023/05/19 05:15:20;;;;;;;19.02;10.90;;;;;;;8.03;83.54;102531.44;6131919;23;20056;-79
2023/05/19 05:17:45;;;;;;;17.45;9.88;;;;;;;8.17;82.80;102522.22;6132709;23;20016;-77
2023/05/19 05:20:12;;;;;;;22.08;10.73;;;;;;;8.39;83.13;102531.50;6108532;23;20317;-77
2023/05/19 05:22:37;;;;;;;17.45;10.27;;;;;;;8.57;82.82;102536.28;6133499;23;20012;-79
2023/05/19 05:25:04;;;;;;;16.85;10.63;;;;;;;8.81;82.64;102529.88;6128668;23;20013;-79
2023/05/19 05:27:30;;;;;;;16.00;9.77;;;;;;;9.05;82.00;102524.31;6132194;23;20020;-78
2023/05/19 05:29:55;;;;;;;16.42;10.02;;;;;;;9.19;79.64;102528.09;6108537;23;20020;-78
2023/05/19 05:32:24;;;;;;;15.65;10.50;;;;;;;9.29;80.46;102539.63;6131671;23;20013;-78
2023/05/19 05:34:50;;;;;;;16.90;9.10;;;;;;;9.31;78.22;102540.56;6132700;23;20043;-78
2023/05/19 05:37:15;;;;;;;15.70;10.23;;;;;;;9.52;77.59;102540.13;6156655;23;20381;-80
2023/05/19 05:39:41;;;;;;;15.27;9.05;;;;;;;9.63;77.49;102542.94;6108000;23;20402;-78
2023/05/19 05:42:09;;;;;;;17.58;8.98;;;;;;;9.87;77.11;102544.25;6158245;23;20032;-79
2023/05/19 05:44:35;;;;;;;14.68;9.43;;;;;;;10.22;76.48;102546.59;6134292;23;20005;-79
2023/05/19 05:47:02;;;;;;;15.50;9.70;;;;;;;10.35;75.18;102526.78;6107832;23;20035;-79
2023/05/19 05:49:28;;;;;;;15.38;9.02;;;;;;;10.65;75.27;102533.34;6109513;23;20017;-78
2023/05/19 05:51:54;;;;;;;17.52;9.23;;;;;;;10.73;73.43;102536.94;6133423;23;20484;-78
2023/05/19 05:54:21;;;;;;;13.05;8.50;;;;;;;10.51;71.67;102533.13;6108834;23;20124;-78
2023/05/19 05:56:47;;;;;;;14.38;8.52;;;;;;;10.54;72.31;102527.94;6132178;23;20166;-80
2023/05/19 05:59:14;;;;;;;15.23;8.48;;;;;;;10.58;72.64;102527.13;6133487;23;20023;-79
2023/05/19 06:01:40;;;;;;;19.58;9.40;;;;;;;11.04;75.16;102525.16;6134036;23;20012;-77
2023/05/19 06:04:06;;;;;;;14.73;9.02;;;;;;;11.24;71.62;102532.41;6134479;23;20009;-77
2023/05/19 06:06:32;;;;;;;16.80;8.40;;;;;;;11.35;68.92;102528.19;6133463;23;20447;-76
2023/05/19 06:08:57;;;;;;;14.43;8.05;;;;;;;11.53;70.64;102534.50;6134068;23;20011;-79
2023/05/19 06:11:23;;;;;;;11.63;7.45;;;;;;;11.53;69.55;102537.13;6133167;23;20016;-80
2023/05/19 06:13:49;;;;;;;14.38;7.75;;;;;;;11.76;68.68;102538.25;6133774;23;20075;-77
2023/05/19 06:16:15;;;;;;;15.27;8.73;;;;;;;11.80;68.15;102544.44;6157883;23;20009;-77
2023/05/19 06:18:40;;;;;;;17.65;8.70;;;;;;;12.07;68.18;102541.22;6134039;23;20115;-79
2023/05/19 06:21:08;;;;;;;16.00;8.13;;;;;;;12.28;67.94;102547.53;6108903;23;20032;-78
2023/05/19 06:23:34;;;;;;;12.02;8.50;;;;;;;12.56;68.30;102542.50;6110708;23;20013;-78
2023/05/19 06:26:00;;;;;;;15.77;7.68;;;;;;;12.73;65.59;102534.69;6133328;23;20501;-77
2023/05/19 06:28:30;;;;;;;13.50;8.23;;;;;;;12.90;66.71;102537.44;6157874;23;20083;-76
2023/05/19 06:30:56;;;;;;;11.05;6.85;;;;;;;13.13;64.61;102540.19;6133261;23;20021;-78
2023/05/19 06:33:21;;;;;;;12.45;6.93;;;;;;;13.43;62.64;102549.13;6133439;23;20039;-78
2023/05/19 06:35:47;;;;;;;14.38;7.50;;;;;;;13.94;64.88;102550.16;6108710;23;20379;-77
2023/05/19 06:38:12;;;;;;;13.05;7.95;;;;;;;14.14;65.60;102550.16;6157877;23;20016;-77
2023/05/19 06:40:37;;;;;;;13.13;6.85;;;;;;;13.94;60.26;102547.50;6131854;23;20009;-77
2023/05/19 06:43:03;;;;;;;13.02;7.40;;;;;;;13.79;62.04;102550.09;6109469;23;20005;-78
2023/05/19 06:45:29;;;;;;;13.43;7.43;;;;;;;13.74;60.66;102544.84;6133648;23;20013;-79
2023/05/19 06:47:57;;;;;;;12.32;7.40;;;;;;;13.71;61.57;102549.22;6157984;23;20009;-78
2023/05/19 06:50:22;;;;;;;13.38;7.25;;;;;;;13.64;61.28;102554.47;6109678;23;20009;-77
2023/05/19 06:52:48;;;;;;;14.02;7.65;;;;;;;13.54;62.64;102541.28;6183675;23;20028;-78
2023/05/19 06:55:13;;;;;;;13.23;7.82;;;;;;;13.88;63.04;102549.25;6106957;23;20025;-77
2023/05/19 06:57:39;;;;;;;14.65;7.97;;;;;;;14.37;63.07;102542.25;6108781;23;20453;-77
2023/05/19 07:00:08;;;;;;;11.90;7.22;;;;;;;14.57;62.27;102546.66;6132829;23;20023;-77
2023/05/19 07:02:33;;;;;;;14.40;7.32;;;;;;;14.62;61.47;102542.25;6110355;23;20147;-79
2023/05/19 07:04:59;;;;;;;12.43;6.80;;;;;;;14.47;59.02;102547.53;6157860;23;20404;-79
2023/05/19 07:07:25;;;;;;;12.00;7.10;;;;;;;14.45;58.34;102544.91;6108648;23;20013;-79
2023/05/19 07:09:51;;;;;;;10.10;6.72;;;;;;;14.63;58.51;102538.75;6108576;23;20009;-79
2023/05/19 07:12:16;;;;;;;11.85;7.03;;;;;;;14.93;60.22;102551.88;6108469;23;20070;-80
2023/05/19 07:14:41;;;;;;;12.52;6.15;;;;;;;14.97;57.95;102543.06;6133229;23;20077;-79
2023/05/19 07:17:07;;;;;;;13.00;6.68;;;;;;;14.85;57.65;102542.22;6108951;23;20395;-83
2023/05/19 07:19:32;;;;;;;11.88;6.30;;;;;;;14.85;57.38;102547.47;6133125;23;20013;-79
2023/05/19 07:21:58;;;;;;;12.65;7.10;;;;;;;14.72;58.20;102546.66;6108537;23;20031;-80
2023/05/19 07:24:23;;;;;;;12.07;6.65;;;;;;;14.88;58.13;102543.97;6130214;23;20019;-81
2023/05/19 07:26:49;;;;;;;13.20;6.38;;;;;;;14.83;58.98;102543.97;6132693;23;20009;-79
2023/05/19 07:29:15;;;;;;;12.68;6.43;;;;;;;14.99;59.13;102542.19;6157097;23;20029;-79
2023/05/19 07:31:40;;;;;;;11.43;5.90;;;;;;;14.95;58.10;102552.75;6108631;23;20016;-80
2023/05/19 07:34:05;;;;;;;15.57;6.03;;;;;;;15.09;57.55;102545.69;6132840;23;20087;-79
2023/05/19 07:36:31;;;;;;;12.02;6.93;;;;;;;15.07;57.09;102545.69;6107126;23;20013;-78
2023/05/19 07:38:56;;;;;;;16.38;6.38;;;;;;;14.94;55.76;102543.06;6132141;23;20030;-79
2023/05/19 07:41:22;;;;;;;9.88;5.70;;;;;;;14.85;55.66;102539.56;6131170;23;20075;-80
2023/05/19 07:43:48;;;;;;;9.15;5.90;;;;;;;15.12;57.24;102543.03;6107689;23;20087;-79
2023/05/19 07:46:14;;;;;;;11.13;5.45;;;;;;;15.13;55.54;102538.59;6155558;23;20013;-80
2023/05/19 07:48:39;;;;;;;11.50;5.85;;;;;;;15.20;55.43;102540.34;6157714;23;20416;-80
2023/05/19 07:51:08;;;;;;;10.80;5.28;;;;;;;15.42;53.64;102541.13;6109074;23;20342;-79
2023/05/19 07:53:36;;;;;;;9.20;5.00;;;;;;;15.12;53.26;102537.75;6135143;23;20436;-78
2023/05/19 07:56:02;;;;;;;9.75;5.78;;;;;;;15.09;53.80;102540.41;6132772;23;20021;-78
2023/05/19 07:58:27;;;;;;;8.20;5.43;;;;;;;15.12;55.04;102543.03;6134917;23;20017;-80
2023/05/19 08:00:57;;;;;;;16.02;5.78;;;;;;;14.98;53.88;102540.41;6110136;23;20432;-79
2023/05/19 08:03:22;;;;;;;11.60;5.60;;;;;;;15.06;54.73;102535.13;6159637;23;20075;-80
2023/05/19 08:05:48;;;;;;;9.48;5.50;;;;;;;15.19;57.65;102528.03;6109162;23;20013;-78
2023/05/19 08:08:18;;;;;;;12.18;6.28;;;;;;;15.22;54.68;102526.25;6133359;23;20074;-80
2023/05/19 08:10:44;;;;;;;11.60;6.03;;;;;;;15.20;54.71;102532.41;6111082;23;20012;-80
2023/05/19 08:13:09;;;;;;;12.07;6.38;;;;;;;15.20;54.19;102525.38;6134627;23;20338;-83
2023/05/19 08:15:35;;;;;;;11.18;6.10;;;;;;;15.40;57.82;102524.41;6110271;23;20045;-80
2023/05/19 08:18:01;;;;;;;14.70;6.90;;;;;;;15.46;55.90;102519.09;6133959;23;20015;-78
2023/05/19 08:20:27;;;;;;;13.88;5.90;;;;;;;15.49;54.36;102519.09;6110169;23;20036;-81
2023/05/19 08:22:53;;;;;;;11.05;5.45;;;;;;;15.56;54.72;102520.81;6110279;23;20088;-81
2023/05/19 08:25:18;;;;;;;10.15;4.88;;;;;;;15.72;56.56;102508.38;6133666;23;20016;-79
2023/05/19 08:27:44;;;;;;;11.48;6.03;;;;;;;15.88;59.37;102514.47;6135139;23;20009;-79
2023/05/19 08:30:10;;;;;;;11.85;6.47;;;;;;;15.88;57.44;102509.16;6159020;23;20012;-78
2023/05/19 08:32:36;;;;;;;11.82;5.13;;;;;;;16.07;56.99;102504.59;6159317;23;20424;-78
2023/05/19 08:35:01;;;;;;;8.77;4.97;;;;;;;15.98;52.77;102498.53;6109626;23;20013;-78
2023/05/19 08:37:27;;;;;;;11.13;5.10;;;;;;;15.76;52.46;102506.59;6109780;23;20091;-77
2023/05/19 08:39:53;;;;;;;7.93;4.82;;;;;;;15.77;51.22;102496.03;6133450;23;20005;-78
2023/05/19 08:42:19;;;;;;;12.68;4.53;;;;;;;15.85;50.40;102495.97;6134968;23;20451;-80
2023/05/19 08:44:44;;;;;;;13.48;5.85;;;;;;;15.93;53.31;102486.25;6159076;23;20096;-79
2023/05/19 08:47:13;;;;;;;10.55;4.90;;;;;;;16.12;55.13;102483.44;6110584;23;20043;-80
2023/05/19 08:49:47;;;;;;;9.68;4.18;;;;;;;16.24;51.08;102479.81;6133485;23;20096;-81
2023/05/19 08:52:21;;;;;;;13.52;4.05;;;;;;;16.25;49.76;102481.56;6158541;23;20001;-79
2023/05/19 08:54:53;;;;;;;9.73;4.25;;;;;;;16.17;50.31;102476.31;6157833;23;20009;-80
2023/05/19 08:57:20;;;;;;;11.20;4.05;;;;;;;16.40;50.67;102472.59;6158748;23;20048;-80
2023/05/19 08:59:47;;;;;;;7.78;3.38;;;;;;;16.43;48.36;102485.78;6158104;23;20099;-82
2023/05/19 09:02:13;;;;;;;9.40;3.20;;;;;;;16.51;48.39;102478.66;6158926;23;20001;-80
2023/05/19 09:04:40;;;;;;;5.82;2.42;;;;;;;16.52;46.80;102468.94;6134188;23;20009;-81
2023/05/19 09:07:08;;;;;;;11.20;3.65;;;;;;;16.53;49.09;102470.69;6185604;23;20013;-78
2023/05/19 09:09:33;;;;;;;10.93;4.20;;;;;;;16.75;50.17;102466.03;6133248;23;20017;-79
2023/05/19 09:11:59;;;;;;;5.35;2.05;;;;;;;16.82;45.13;102469.50;6109966;23;20063;-80
2023/05/19 09:14:25;;;;;;;7.30;1.90;;;;;;;16.89;43.88;102479.13;6110519;23;20084;-81
2023/05/19 09:16:51;;;;;;;10.98;2.70;;;;;;;16.79;43.31;102473.03;6134466;23;20032;-83
2023/05/19 09:19:17;;;;;;;7.18;2.60;;;;;;;16.78;45.97;102466.88;6134197;23;20013;-81
2023/05/19 09:21:44;;;;;;;7.97;3.20;;;;;;;16.94;44.85;102461.44;6158333;23;20100;-82
2023/05/19 09:24:10;;;;;;;5.70;2.58;;;;;;;17.10;45.05;102456.81;6132746;23;20009;-82
2023/05/19 09:26:37;;;;;;;6.53;2.38;;;;;;;17.10;43.41;102470.91;6158037;23;20479;-81
2023/05/19 09:29:22;;;;;;;9.85;2.35;;;;;;;17.00;44.02;102464.00;6134548;23;20013;-80
2023/05/19 09:31:59;;;;;;;7.80;1.88;;;;;;;16.84;42.61;102457.09;6158817;23;20005;-81
2023/05/19 09:34:25;;;;;;;7.25;1.83;;;;;;;16.88;42.74;102462.38;6158314;23;20449;-81
2023/05/19 09:36:52;;;;;;;5.75;2.15;;;;;;;16.63;41.33;102446.75;6134068;23;20343;-83
2023/05/19 09:39:19;;;;;;;8.52;2.53;;;;;;;16.76;47.41;102454.56;6158428;23;20005;-82
2023/05/19 09:41:45;;;;;;;7.65;2.28;;;;;;;16.70;41.70;102447.56;6158039;23;20009;-82
2023/05/19 09:44:22;;;;;;;12.00;2.47;;;;;;;16.89;46.27;102453.53;6158895;23;20001;-80
2023/05/19 09:46:53;;;;;;;6.55;2.58;;;;;;;16.95;43.33;102455.22;6134371;23;20091;-81
2023/05/19 09:49:24;;;;;;;5.93;2.20;;;;;;;17.01;46.08;102448.97;6158223;23;20008;-80
2023/05/19 09:52:08;;;;;;;8.63;2.53;;;;;;;17.05;44.44;102456.00;6157484;23;20431;-80
2023/05/19 09:54:34;;;;;;;10.73;3.33;;;;;;;17.05;44.56;102459.53;6157418;23;20343;-81
2023/05/19 09:57:02;;;;;;;5.65;2.90;;;;;;;17.17;45.56;102453.19;6157794;23;20324;-81
2023/05/19 09:59:28;;;;;;;10.80;2.88;;;;;;;17.16;44.82;102459.38;6110115;23;20019;-79
2023/05/19 10:01:58;;;;;;;7.90;2.85;;;;;;;17.17;45.45;102455.84;6157093;23;20001;-82
2023/05/19 10:04:43;;;;;;;8.60;3.05;;;;;;;17.08;44.13;102458.59;6158640;23;20083;-77
2023/05/19 10:07:10;;;;;;;7.60;3.40;;;;;;;17.12;45.67;102449.72;6155375;23;20009;-81
2023/05/19 10:09:39;;;;;;;7.45;3.00;;;;;;;17.27;45.48;102444.22;6158489;23;20079;-78
2023/05/19 10:12:08;;;;;;;8.65;3.55;;;;;;;17.19;45.75;102454.03;6158535;23;20084;-78
2023/05/19 10:14:33;;;;;;;6.13;2.80;;;;;;;17.08;46.30;102448.00;6134215;23;20005;-83
2023/05/19 10:16:58;;;;;;;11.13;2.95;;;;;;;16.99;42.80;102445.47;6109277;23;20085;-81
2023/05/19 10:19:27;;;;;;;7.30;3.08;;;;;;;16.94;44.74;102446.41;6133984;23;20029;-81
2023/05/19 10:21:53;;;;;;;9.70;3.00;;;;;;;17.17;45.20;102441.69;6158191;23;20340;-82
2023/05/19 10:24:21;;;;;;;10.93;3.70;;;;;;;17.40;45.41;102434.31;6158019;23;20005;-83
2023/05/19 10:26:51;;;;;;;8.30;2.65;;;;;;;17.28;42.20;102440.66;6158255;23;20015;-78
2023/05/19 10:29:24;;;;;;;13.73;2.42;;;;;;;17.35;42.78;102449.38;6158513;23;20005;-79
2023/05/19 10:31:51;;;;;;;7.78;2.72;;;;;;;17.25;42.38;102438.03;6158131;23;20454;-83
2023/05/19 10:34:36;;;;;;;10.55;2.58;;;;;;;17.26;43.00;102437.16;6155673;23;20019;-80
2023/05/19 10:37:15;;;;;;;11.73;2.50;;;;;;;17.28;42.00;102419.47;6157884;23;20479;-80
2023/05/19 10:39:43;;;;;;;4.23;1.97;;;;;;;17.27;42.09;102430.97;6157451;23;20112;-82
2023/05/19 10:42:18;;;;;;;6.72;2.33;;;;;;;17.21;41.47;102428.41;6158487;23;20017;-83
2023/05/19 10:45:09;;;;;;;7.50;2.97;;;;;;;17.16;43.20;102430.25;6158309;23;20016;-80
2023/05/19 10:47:35;;;;;;;6.75;2.38;;;;;;;17.09;43.16;102423.28;6158020;23;20043;-85
2023/05/19 10:50:00;;;;;;;7.03;2.25;;;;;;;17.06;43.75;102418.03;6109205;23;20020;-82
2023/05/19 10:52:28;;;;;;;7.72;2.28;;;;;;;17.22;44.65;102422.19;6108869;23;20459;-80
2023/05/19 10:54:57;;;;;;;6.32;2.42;;;;;;;17.24;42.60;102411.56;6108950;23;20008;-81
2023/05/19 10:57:27;;;;;;;6.75;2.00;;;;;;;17.33;42.11;102413.25;6158302;23;20399;-81
2023/05/19 10:59:54;;;;;;;5.25;2.20;;;;;;;17.32;42.98;102417.63;6133334;23;20020;-82
2023/05/19 11:02:54;;;;;;;7.10;2.60;;;;;;;17.30;40.94;102424.75;6133932;23;20013;-81
2023/05/19 11:05:27;;;;;;;8.20;2.40;;;;;;;17.34;42.90;102397.31;6158119;23;20117;-83
2023/05/19 11:08:04;;;;;;;7.72;2.42;;;;;;;17.46;44.88;102413.00;6158042;23;20036;-82
2023/05/19 11:10:30;;;;;;;5.90;2.15;;;;;;;17.47;42.22;102416.56;6134100;23;20091;-81
2023/05/19 11:12:56;;;;;;;6.88;2.70;;;;;;;17.55;40.37;102414.63;6158035;23;20028;-81
2023/05/19 11:15:28;;;;;;;6.53;2.50;;;;;;;17.58;40.67;102413.72;6133169;23;20348;-83
2023/05/19 11:17:55;;;;;;;6.18;2.25;;;;;;;17.71;41.34;102396.69;6134252;23;20009;-81
2023/05/19 11:20:23;;;;;;;7.25;2.33;;;;;;;17.58;40.50;102421.66;6132782;23;20408;-81
2023/05/19 11:23:08;;;;;;;9.48;2.83;;;;;;;17.52;40.22;102414.69;6157336;23;20009;-81
2023/05/19 11:25:48;;;;;;;11.73;3.35;;;;;;;17.58;43.08;102419.00;6160514;23;20424;-81